Time;durP1;ratioP1;P1;durP2;ratioP2;P2;SDS_P1;SDS_P2;PMS_P1;PMS_P2;Temp;Humidity;BMP_temperature;BMP_pressure;BME280_temperature;BME280_humidity;BME280_pressure;Samples;Min_cycle;Max_cycle;Signal;HPM_P1;HPM_P2
2023/01/14 00:01:24;;;;;;;5.63;2.10;;;8.10;99.90;;;;;;5023862;28;20210;-74
2023/01/14 00:03:51;;;;;;;9.83;1.90;;;8.20;99.90;;;;;;5015529;28;20208;-76
2023/01/14 00:06:20;;;;;;;2.63;1.57;;;8.10;99.90;;;;;;5024396;28;20209;-73
2023/01/14 00:08:46;;;;;;;7.00;2.03;;;8.00;99.90;;;;;;5019474;28;20203;-76
2023/01/14 00:11:14;;;;;;;4.47;1.97;;;8.00;99.90;;;;;;5014429;28;20203;-74
2023/01/14 00:13:40;;;;;;;4.03;1.73;;;8.00;99.90;;;;;;5024042;28;20242;-78
2023/01/14 00:16:10;;;;;;;6.10;1.90;;;7.90;99.90;;;;;;5024964;28;20202;-68
2023/01/14 00:18:36;;;;;;;6.13;2.07;;;7.90;99.90;;;;;;5025802;28;20210;-68
2023/01/14 00:21:07;;;;;;;3.33;2.00;;;8.00;99.90;;;;;;5027615;28;20529;-69
2023/01/14 00:23:34;;;;;;;6.97;2.93;;;7.90;99.90;;;;;;5029209;28;20210;-72
2023/01/14 00:26:06;;;;;;;1.33;1.23;;;8.00;99.90;;;;;;5032293;28;20195;-71
2023/01/14 00:28:32;;;;;;;1.60;1.50;;;8.00;99.90;;;;;;5018796;28;20234;-77
2023/01/14 00:31:07;;;;;;;4.57;1.87;;;8.10;99.90;;;;;;5021604;28;20814;-71
2023/01/14 00:33:33;;;;;;;3.97;1.60;;;8.20;99.90;;;;;;5024458;28;20272;-73
2023/01/14 00:35:58;;;;;;;3.50;1.60;;;8.00;99.90;;;;;;5015387;28;20203;-71
2023/01/14 00:38:24;;;;;;;6.83;1.73;;;8.00;99.90;;;;;;5031907;28;20198;-72
2023/01/14 00:40:58;;;;;;;3.57;1.57;;;8.00;99.90;;;;;;5021759;28;20203;-73
2023/01/14 00:43:24;;;;;;;4.27;2.07;;;8.00;99.90;;;;;;5027492;28;20688;-73
2023/01/14 00:45:49;;;;;;;3.60;1.30;;;7.90;99.90;;;;;;5022981;28;20828;-73
2023/01/14 00:48:15;;;;;;;2.80;1.80;;;8.00;99.90;;;;;;5021893;28;20209;-72
2023/01/14 00:50:41;;;;;;;3.50;1.43;;;8.00;99.90;;;;;;5024840;28;20208;-63
2023/01/14 00:53:06;;;;;;;9.57;3.87;;;8.10;99.90;;;;;;5005070;28;20194;-65
2023/01/14 00:55:34;;;;;;;4.37;1.67;;;7.90;99.90;;;;;;5019195;28;20202;-66
2023/01/14 00:58:00;;;;;;;5.13;2.10;;;7.80;99.90;;;;;;5017759;28;20295;-64
2023/01/14 01:00:25;;;;;;;3.53;1.93;;;7.80;99.90;;;;;;5007178;28;20776;-66
2023/01/14 01:02:51;;;;;;;5.07;2.13;;;7.80;99.90;;;;;;5011349;28;20198;-65
2023/01/14 01:05:16;;;;;;;4.87;1.60;;;7.80;99.90;;;;;;5011871;28;20199;-66
2023/01/14 01:07:42;;;;;;;1.50;1.40;;;7.80;99.90;;;;;;5013928;28;20687;-65
2023/01/14 01:10:09;;;;;;;6.03;1.70;;;7.80;99.90;;;;;;5019808;28;20209;-66
2023/01/14 01:12:34;;;;;;;1.20;1.10;;;7.80;99.90;;;;;;5012547;28;20196;-66
2023/01/14 01:14:59;;;;;;;2.60;1.60;;;7.80;99.90;;;;;;5030487;28;20206;-65
2023/01/14 01:17:25;;;;;;;2.60;1.27;;;7.80;99.90;;;;;;5039101;28;20207;-66
2023/01/14 01:19:53;;;;;;;1.53;1.20;;;7.80;99.90;;;;;;5027151;28;20290;-64
2023/01/14 01:22:19;;;;;;;2.87;1.93;;;7.80;99.90;;;;;;5038149;28;20285;-65
2023/01/14 01:24:45;;;;;;;1.73;1.23;;;7.80;99.90;;;;;;5034113;28;20764;-64
2023/01/14 01:27:11;;;;;;;2.80;1.67;;;7.80;99.90;;;;;;5037229;28;20261;-64
2023/01/14 01:29:36;;;;;;;6.77;1.90;;;7.80;99.90;;;;;;5037930;28;20223;-66
2023/01/14 01:32:02;;;;;;;3.93;2.03;;;7.80;99.90;;;;;;5038061;28;20199;-66
2023/01/14 01:34:28;;;;;;;1.50;1.37;;;7.80;99.90;;;;;;5038470;28;20627;-66
2023/01/14 01:36:53;;;;;;;2.13;1.60;;;7.80;99.90;;;;;;5034322;28;20218;-67
2023/01/14 01:39:19;;;;;;;4.53;1.70;;;7.80;99.90;;;;;;5036279;28;20683;-65
2023/01/14 01:41:44;;;;;;;5.67;1.47;;;7.80;99.90;;;;;;5024172;28;20288;-66
2023/01/14 01:44:13;;;;;;;3.73;1.70;;;7.80;99.90;;;;;;5038874;28;20768;-65
2023/01/14 01:46:40;;;;;;;2.90;1.90;;;7.60;99.90;;;;;;5038596;28;20206;-67
2023/01/14 01:49:14;;;;;;;6.33;2.20;;;7.50;99.90;;;;;;5025346;28;20772;-66
2023/01/14 01:51:45;;;;;;;4.83;2.40;;;7.50;99.90;;;;;;5019591;28;20211;-67
2023/01/14 01:54:12;;;;;;;6.30;3.40;;;7.40;99.90;;;;;;5030535;28;20198;-66
2023/01/14 01:56:39;;;;;;;6.53;2.70;;;7.20;99.90;;;;;;5028444;28;20257;-66
2023/01/14 01:59:09;;;;;;;4.47;2.13;;;7.20;99.90;;;;;;5021523;28;20255;-79
2023/01/14 02:01:35;;;;;;;5.60;2.83;;;7.20;99.90;;;;;;5027808;28;20306;-66
2023/01/14 02:04:01;;;;;;;5.13;2.10;;;7.20;99.90;;;;;;5027853;28;20703;-66
2023/01/14 02:06:26;;;;;;;7.47;2.53;;;7.30;99.90;;;;;;5027726;28;20290;-65
2023/01/14 02:08:54;;;;;;;5.70;1.70;;;7.50;99.90;;;;;;5031294;28;20305;-68
2023/01/14 02:11:58;;;;;;;5.80;2.03;;;7.60;99.90;;;;;;5026060;28;20206;-68
2023/01/14 02:14:45;;;;;;;4.20;3.07;;;7.70;99.90;;;;;;5032875;28;20693;-68
2023/01/14 02:17:51;;;;;;;2.43;1.80;;;7.70;99.90;;;;;;5035308;28;20199;-65
2023/01/14 02:20:52;;;;;;;2.20;1.27;;;7.80;99.90;;;;;;5037343;28;20203;-66
2023/01/14 02:23:31;;;;;;;5.40;1.40;;;7.80;99.90;;;;;;5026344;28;20207;-65
2023/01/14 02:26:30;;;;;;;4.27;1.53;;;7.80;99.90;;;;;;5022829;28;20216;-65
2023/01/14 02:29:33;;;;;;;4.30;1.93;;;7.80;99.90;;;;;;5020518;28;20208;-65
2023/01/14 02:32:10;;;;;;;4.63;1.60;;;7.60;99.90;;;;;;5024468;28;20199;-66
2023/01/14 02:35:06;;;;;;;7.33;1.87;;;7.40;99.90;;;;;;5025969;28;20196;-66
2023/01/14 02:38:11;;;;;;;5.30;2.03;;;7.40;99.90;;;;;;5024763;28;20897;-67
2023/01/14 02:47:36;;;;;;;2.40;1.97;;;7.30;99.90;;;;;;5029684;28;20611;-67
2023/01/14 02:50:03;;;;;;;6.30;1.60;;;6.90;99.90;;;;;;5035373;28;20223;-68
2023/01/14 02:52:29;;;;;;;5.47;2.50;;;6.70;99.90;;;;;;5026741;28;20233;-67
2023/01/14 02:54:56;;;;;;;5.70;2.23;;;6.60;99.90;;;;;;5022368;28;20692;-66
2023/01/14 02:57:55;;;;;;;3.87;2.07;;;6.50;99.90;;;;;;5026566;28;20297;-67
2023/01/14 03:00:34;;;;;;;5.80;2.43;;;6.50;99.90;;;;;;5021253;28;20573;-66
2023/01/14 03:03:20;;;;;;;4.97;2.20;;;6.50;99.90;;;;;;5024886;28;20217;-66
2023/01/14 03:06:17;;;;;;;16.17;11.03;;;6.60;99.90;;;;;;5027052;28;20629;-66
2023/01/14 03:09:01;;;;;;;3.80;2.60;;;6.60;99.90;;;;;;5024808;28;20264;-67
2023/01/14 03:11:36;;;;;;;3.53;1.70;;;6.60;99.90;;;;;;5024265;28;20210;-68
2023/01/14 03:14:08;;;;;;;8.83;5.43;;;6.50;99.90;;;;;;5024732;28;20191;-66
2023/01/14 03:16:41;;;;;;;3.63;2.27;;;6.50;99.90;;;;;;5031028;28;20206;-66
2023/01/14 03:19:25;;;;;;;10.27;6.00;;;6.50;99.90;;;;;;5033920;28;20542;-67
2023/01/14 03:21:54;;;;;;;7.77;2.90;;;6.40;99.90;;;;;;5036528;28;20221;-67
2023/01/14 03:24:30;;;;;;;4.90;2.67;;;6.40;99.90;;;;;;5036490;28;20229;-66
2023/01/14 03:27:01;;;;;;;4.97;2.73;;;6.40;99.90;;;;;;5036687;28;20695;-66
2023/01/14 03:29:32;;;;;;;8.43;3.53;;;6.40;99.90;;;;;;5036674;28;20580;-66
2023/01/14 03:32:04;;;;;;;5.47;2.80;;;6.40;99.90;;;;;;5028641;28;20261;-66
2023/01/14 03:34:35;;;;;;;6.00;2.10;;;6.50;99.90;;;;;;5023735;28;20203;-66
2023/01/14 03:37:05;;;;;;;5.70;1.97;;;6.50;99.90;;;;;;5029654;28;20195;-65
2023/01/14 03:39:32;;;;;;;7.07;1.90;;;6.50;99.90;;;;;;5034958;28;20195;-66
2023/01/14 03:42:19;;;;;;;5.17;2.30;;;6.60;99.90;;;;;;5032176;28;20205;-66
2023/01/14 03:45:11;;;;;;;4.33;2.07;;;6.60;99.90;;;;;;5035121;28;20194;-65
2023/01/14 03:47:37;;;;;;;2.37;1.40;;;6.60;99.90;;;;;;5035169;28;20254;-65
2023/01/14 03:50:07;;;;;;;6.10;2.40;;;6.70;99.90;;;;;;5034140;28;20214;-66
2023/01/14 03:52:49;;;;;;;3.60;1.93;;;6.70;99.90;;;;;;5036182;28;20286;-66
2023/01/14 03:55:59;;;;;;;4.20;1.43;;;6.80;99.90;;;;;;5034101;28;20682;-66
2023/01/14 03:58:35;;;;;;;1.37;1.33;;;6.90;99.90;;;;;;5033613;28;20287;-66
2023/01/14 04:01:09;;;;;;;3.17;1.60;;;6.90;99.90;;;;;;5031793;28;20294;-66
2023/01/14 04:03:35;;;;;;;3.67;1.50;;;7.00;99.90;;;;;;5027268;28;20207;-66
2023/01/14 04:06:01;;;;;;;4.00;1.63;;;7.10;99.90;;;;;;5031474;28;20256;-66
2023/01/14 04:08:27;;;;;;;5.03;2.20;;;7.10;99.90;;;;;;5022635;28;20218;-66
2023/01/14 04:10:52;;;;;;;6.10;1.60;;;7.10;99.90;;;;;;5025381;28;20298;-65
2023/01/14 04:16:02;;;;;;;4.10;1.73;;;7.10;99.90;;;;;;5026380;28;20573;-66
2023/01/14 04:18:28;;;;;;;7.30;1.47;;;7.00;99.90;;;;;;5026308;28;20203;-65
2023/01/14 04:20:54;;;;;;;5.87;2.17;;;7.10;99.90;;;;;;5024947;28;20214;-66
2023/01/14 04:23:19;;;;;;;4.53;1.87;;;7.10;99.90;;;;;;5025777;28;20618;-65
2023/01/14 04:25:45;;;;;;;5.07;2.10;;;7.20;99.90;;;;;;5024774;28;20421;-65
2023/01/14 04:28:10;;;;;;;4.93;2.43;;;7.20;99.90;;;;;;5025804;28;20597;-66
2023/01/14 04:30:36;;;;;;;2.63;1.60;;;7.30;99.90;;;;;;5024994;28;20253;-66
2023/01/14 04:33:02;;;;;;;4.23;1.80;;;7.30;99.90;;;;;;5024092;28;20223;-66
2023/01/14 04:35:27;;;;;;;3.90;1.43;;;7.40;99.90;;;;;;5026352;28;20207;-66
2023/01/14 04:37:54;;;;;;;4.83;1.87;;;7.40;99.90;;;;;;5026677;28;20265;-65
2023/01/14 04:40:20;;;;;;;2.93;1.80;;;7.40;99.90;;;;;;5026088;28;20682;-66
2023/01/14 04:42:46;;;;;;;7.17;2.90;;;7.40;99.90;;;;;;5025929;28;20607;-66
2023/01/14 04:45:11;;;;;;;5.93;2.13;;;7.40;99.90;;;;;;5026215;28;20217;-66
2023/01/14 04:47:38;;;;;;;5.03;1.70;;;7.50;99.90;;;;;;5023422;28;20265;-67
2023/01/14 04:50:30;;;;;;;5.67;2.67;;;7.50;99.90;;;;;;5025567;28;20264;-66
2023/01/14 04:52:51;;;;;;;2.87;1.87;;;7.50;99.90;;;;;;5027867;28;20552;-67
2023/01/14 04:55:16;;;;;;;2.53;1.53;;;7.50;99.90;;;;;;5022185;28;20230;-66
2023/01/14 04:57:42;;;;;;;4.23;1.70;;;7.50;99.90;;;;;;5027204;28;20290;-67
2023/01/14 05:00:09;;;;;;;4.43;1.90;;;7.50;99.90;;;;;;5023665;28;20544;-66
2023/01/14 05:02:34;;;;;;;4.80;1.70;;;7.50;99.90;;;;;;5026040;28;20195;-66
2023/01/14 05:05:00;;;;;;;2.60;1.87;;;7.50;99.90;;;;;;5024921;28;20198;-67
2023/01/14 05:07:25;;;;;;;3.63;1.43;;;7.50;99.90;;;;;;5029247;28;20692;-67
2023/01/14 05:09:51;;;;;;;5.33;2.07;;;7.60;99.90;;;;;;5029109;28;20210;-66
2023/01/14 05:12:16;;;;;;;4.30;1.67;;;7.60;99.90;;;;;;5029172;28;20199;-66
2023/01/14 05:14:42;;;;;;;4.13;1.57;;;7.60;99.90;;;;;;5025727;28;20214;-66
2023/01/14 05:17:07;;;;;;;2.30;1.73;;;7.60;99.90;;;;;;5029253;28;20318;-66
2023/01/14 05:19:33;;;;;;;4.40;1.53;;;7.60;99.90;;;;;;5028777;28;20290;-66
2023/01/14 05:21:58;;;;;;;3.37;1.67;;;7.60;99.90;;;;;;5032490;28;20226;-66
2023/01/14 05:24:24;;;;;;;4.40;1.80;;;7.70;99.90;;;;;;5025509;28;20212;-66
2023/01/14 05:26:49;;;;;;;8.13;2.27;;;7.70;99.90;;;;;;5029811;28;20234;-66
2023/01/14 05:29:15;;;;;;;5.30;1.70;;;7.70;99.90;;;;;;5029585;28;20704;-66
2023/01/14 05:31:40;;;;;;;6.67;1.40;;;7.70;99.90;;;;;;5029668;28;20198;-67
2023/01/14 05:34:06;;;;;;;5.63;2.23;;;7.70;99.90;;;;;;5029410;28;20210;-66
2023/01/14 05:36:31;;;;;;;5.77;1.77;;;7.70;99.90;;;;;;5027262;28;20202;-66
2023/01/14 05:38:57;;;;;;;4.63;1.13;;;7.70;99.90;;;;;;5028684;28;20195;-66
2023/01/14 05:41:22;;;;;;;3.03;1.50;;;7.70;99.90;;;;;;5028634;28;20616;-67
2023/01/14 05:46:32;;;;;;;3.07;1.50;;;7.70;99.90;;;;;;5022290;28;20671;-70
2023/01/14 05:48:57;;;;;;;4.07;2.10;;;7.70;99.90;;;;;;5029165;28;20584;-64
2023/01/14 05:51:23;;;;;;;5.30;1.40;;;7.70;99.90;;;;;;5028198;28;20195;-67
2023/01/14 05:53:48;;;;;;;5.27;1.70;;;7.70;99.90;;;;;;5011247;28;20659;-66
2023/01/14 05:56:14;;;;;;;2.83;1.77;;;7.80;99.90;;;;;;5025834;28;20202;-67
2023/01/14 05:58:39;;;;;;;6.40;1.60;;;7.80;99.90;;;;;;5023278;28;20260;-66
2023/01/14 06:06:39;;;;;;;1.73;1.27;;;7.80;99.90;;;;;;5027679;28;20233;-65
2023/01/14 06:09:11;;;;;;;5.57;1.87;;;7.80;99.90;;;;;;5026815;28;20206;-65
2023/01/14 06:11:42;;;;;;;4.77;1.30;;;7.80;99.90;;;;;;5031241;28;20194;-66
2023/01/14 06:14:08;;;;;;;5.13;1.57;;;7.80;99.90;;;;;;5023394;28;20231;-65
2023/01/14 06:16:39;;;;;;;3.03;2.23;;;7.80;99.90;;;;;;5022783;28;20287;-66
2023/01/14 06:19:06;;;;;;;7.13;1.60;;;7.80;99.90;;;;;;5030644;28;20199;-65
2023/01/14 06:21:33;;;;;;;5.50;1.93;;;7.70;99.90;;;;;;5026003;28;20207;-66
2023/01/14 06:23:58;;;;;;;6.57;1.90;;;7.80;99.90;;;;;;5028531;28;20723;-66
2023/01/14 06:26:28;;;;;;;3.53;1.50;;;7.70;99.90;;;;;;5026201;28;20214;-68
2023/01/14 06:29:05;;;;;;;3.97;1.43;;;7.80;99.90;;;;;;5027531;28;20210;-66
2023/01/14 06:31:30;;;;;;;3.83;1.40;;;7.80;99.90;;;;;;5027425;28;20211;-65
2023/01/14 06:33:57;;;;;;;3.17;1.83;;;7.80;99.90;;;;;;5026351;28;20262;-67
2023/01/14 06:36:23;;;;;;;2.63;1.70;;;7.70;99.90;;;;;;5028018;28;20199;-66
2023/01/14 06:38:49;;;;;;;2.93;1.83;;;7.70;99.90;;;;;;5028604;28;20207;-66
2023/01/14 06:41:14;;;;;;;1.60;1.30;;;7.60;99.90;;;;;;5027869;28;20286;-66
2023/01/14 06:43:41;;;;;;;4.47;2.00;;;7.60;99.90;;;;;;5028723;28;20692;-66
2023/01/14 06:46:08;;;;;;;9.37;1.90;;;7.50;99.90;;;;;;5027077;28;20211;-66
2023/01/14 06:48:34;;;;;;;4.83;1.97;;;7.40;99.90;;;;;;5021440;28;20287;-66
2023/01/14 06:51:04;;;;;;;3.47;2.00;;;7.40;99.90;;;;;;5027337;28;20203;-67
2023/01/14 06:53:30;;;;;;;3.77;1.67;;;7.30;99.90;;;;;;5027646;28;20227;-67
2023/01/14 06:56:00;;;;;;;5.43;1.80;;;7.30;99.90;;;;;;5025097;28;20231;-65
2023/01/14 06:58:26;;;;;;;6.60;2.17;;;7.40;99.90;;;;;;5027362;28;20728;-66
2023/01/14 07:00:55;;;;;;;6.27;2.23;;;7.40;99.90;;;;;;5027485;28;20204;-66
2023/01/14 07:03:20;;;;;;;2.60;1.60;;;7.30;99.90;;;;;;5027473;28;20605;-66
2023/01/14 07:05:46;;;;;;;5.77;1.90;;;7.30;99.90;;;;;;5027374;28;20509;-67
2023/01/14 07:08:11;;;;;;;4.00;2.00;;;7.30;99.90;;;;;;5023668;28;20672;-67
2023/01/14 07:10:37;;;;;;;4.07;1.57;;;7.30;99.90;;;;;;5026142;28;20272;-67
2023/01/14 07:13:02;;;;;;;5.63;1.87;;;7.30;99.90;;;;;;5032981;28;20199;-66
2023/01/14 07:15:28;;;;;;;5.53;1.73;;;7.30;99.90;;;;;;5034446;28;20713;-66
2023/01/14 07:17:53;;;;;;;3.03;1.30;;;7.20;99.90;;;;;;5026416;28;20590;-66
2023/01/14 07:20:19;;;;;;;4.57;1.87;;;7.10;99.90;;;;;;5026826;28;20207;-67
2023/01/14 07:22:44;;;;;;;2.87;1.33;;;7.10;99.90;;;;;;5025242;28;20616;-66
2023/01/14 07:25:10;;;;;;;2.93;2.00;;;7.10;99.90;;;;;;5026096;28;20209;-67
2023/01/14 07:27:35;;;;;;;3.77;1.57;;;7.10;99.90;;;;;;5027688;28;20561;-66
2023/01/14 07:30:01;;;;;;;4.63;1.83;;;7.00;99.90;;;;;;5024803;28;20699;-66
2023/01/14 07:32:27;;;;;;;4.20;1.90;;;7.00;99.90;;;;;;5026143;28;20204;-65
2023/01/14 07:34:52;;;;;;;4.97;1.60;;;7.00;99.90;;;;;;5026215;28;20574;-67
2023/01/14 07:37:18;;;;;;;7.50;1.60;;;7.10;99.90;;;;;;5025004;28;20210;-65
2023/01/14 07:39:44;;;;;;;4.43;2.13;;;7.00;99.90;;;;;;5029329;28;20709;-66
2023/01/14 07:42:10;;;;;;;5.37;1.87;;;7.00;99.90;;;;;;5023066;28;20307;-66
2023/01/14 07:44:36;;;;;;;3.47;2.03;;;7.00;99.90;;;;;;5026583;28;20202;-66
2023/01/14 07:47:01;;;;;;;5.93;1.73;;;7.00;99.90;;;;;;5026718;28;20261;-65
2023/01/14 07:49:27;;;;;;;4.90;1.90;;;7.00;99.90;;;;;;5026498;28;20219;-66
2023/01/14 07:51:53;;;;;;;5.60;2.17;;;7.10;99.90;;;;;;5024425;28;20357;-65
2023/01/14 07:54:19;;;;;;;5.00;1.80;;;7.10;99.90;;;;;;5025436;28;20284;-65
2023/01/14 07:56:48;;;;;;;2.87;1.50;;;7.10;99.90;;;;;;5017280;28;20199;-66
2023/01/14 07:59:14;;;;;;;3.70;1.33;;;7.00;99.90;;;;;;5028829;28;20213;-66
2023/01/14 08:01:39;;;;;;;5.70;2.50;;;7.00;99.90;;;;;;5020268;28;20203;-66
2023/01/14 08:04:05;;;;;;;4.87;2.37;;;7.00;99.90;;;;;;5026300;28;20203;-67
2023/01/14 08:06:32;;;;;;;5.10;1.53;;;6.90;99.90;;;;;;5029092;28;20202;-66
2023/01/14 08:09:01;;;;;;;4.23;2.10;;;7.00;99.90;;;;;;5023336;28;20199;-66
2023/01/14 08:11:27;;;;;;;3.73;1.50;;;7.10;99.90;;;;;;5026432;28;20202;-66
2023/01/14 08:13:52;;;;;;;2.77;2.27;;;7.10;99.90;;;;;;5026223;28;20213;-66
2023/01/14 08:16:18;;;;;;;4.60;2.57;;;7.20;99.90;;;;;;5024941;28;20251;-66
2023/01/14 08:18:43;;;;;;;7.47;2.07;;;7.20;99.90;;;;;;5024422;28;20199;-67
2023/01/14 08:21:09;;;;;;;6.73;1.77;;;7.30;99.90;;;;;;5024712;28;20959;-66
2023/01/14 08:23:36;;;;;;;2.43;1.30;;;7.30;99.90;;;;;;5008832;28;20281;-67
2023/01/14 08:26:08;;;;;;;8.30;1.83;;;7.30;99.90;;;;;;5004607;28;20344;-69
2023/01/14 08:28:34;;;;;;;3.17;2.40;;;7.40;99.90;;;;;;5011065;28;20208;-66
2023/01/14 08:31:08;;;;;;;3.47;1.50;;;7.40;99.90;;;;;;5019650;28;20815;-67
2023/01/14 08:33:34;;;;;;;6.33;2.07;;;7.40;99.90;;;;;;5011409;28;20210;-66
2023/01/14 08:36:08;;;;;;;6.07;2.10;;;7.40;99.90;;;;;;5005484;28;20208;-66
2023/01/14 08:38:35;;;;;;;4.03;1.37;;;7.50;99.90;;;;;;5007579;28;20573;-66
2023/01/14 08:41:06;;;;;;;5.73;2.10;;;7.50;99.90;;;;;;5013529;28;20202;-66
2023/01/14 08:43:31;;;;;;;2.80;1.67;;;7.60;99.90;;;;;;5010107;28;20235;-67
2023/01/14 08:45:57;;;;;;;4.93;2.07;;;7.60;99.90;;;;;;5011582;28;20297;-67
2023/01/14 08:48:23;;;;;;;2.47;1.30;;;7.60;99.90;;;;;;5014962;28;20323;-65
2023/01/14 08:50:48;;;;;;;3.57;1.53;;;7.70;99.90;;;;;;5015204;28;20246;-67
2023/01/14 08:53:14;;;;;;;5.03;1.33;;;7.70;99.90;;;;;;5008663;28;20211;-67
2023/01/14 08:55:39;;;;;;;4.47;1.60;;;7.80;99.90;;;;;;5010669;28;20547;-66
2023/01/14 08:58:08;;;;;;;8.83;2.27;;;7.80;99.90;;;;;;5008784;28;20211;-66
2023/01/14 09:00:34;;;;;;;5.70;2.00;;;7.80;99.90;;;;;;5015753;28;20346;-67
2023/01/14 09:03:00;;;;;;;3.03;1.87;;;7.80;99.90;;;;;;5014973;28;20276;-71
2023/01/14 09:05:25;;;;;;;4.33;1.90;;;7.90;99.90;;;;;;5020947;28;20747;-71
2023/01/14 09:19:01;;;;;;;5.40;1.70;;;8.20;99.90;;;;;;5038247;28;20206;-73
2023/01/14 09:21:26;;;;;;;2.60;1.43;;;8.60;99.90;;;;;;5027635;28;20258;-58
2023/01/14 09:23:52;;;;;;;7.03;1.37;;;8.90;99.90;;;;;;5022436;28;20611;-58
2023/01/14 09:26:20;;;;;;;5.90;1.60;;;9.00;99.90;;;;;;5013580;28;20282;-58
2023/01/14 09:28:45;;;;;;;2.53;1.30;;;9.20;99.90;;;;;;5013111;28;20356;-58
2023/01/14 09:31:11;;;;;;;5.40;1.67;;;9.20;99.90;;;;;;5012330;28;20957;-58
2023/01/14 09:33:36;;;;;;;5.33;2.23;;;9.20;99.90;;;;;;5018663;28;20259;-58
2023/01/14 09:36:02;;;;;;;5.80;1.57;;;9.20;99.90;;;;;;5036511;28;20209;-68
2023/01/14 09:38:28;;;;;;;8.40;1.77;;;9.20;99.90;;;;;;5039234;28;20203;-60
2023/01/14 09:40:54;;;;;;;7.57;1.67;;;9.20;99.90;;;;;;5035232;28;20285;-60
2023/01/14 09:43:20;;;;;;;5.83;2.30;;;9.30;99.90;;;;;;5038216;28;20352;-60
2023/01/14 09:45:50;;;;;;;6.10;1.53;;;9.30;99.90;;;;;;5037936;28;20268;-59
2023/01/14 09:48:20;;;;;;;5.53;1.80;;;9.30;99.90;;;;;;5037764;28;20313;-58
2023/01/14 09:51:00;;;;;;;5.23;1.73;;;9.30;99.90;;;;;;5028286;28;20215;-59
2023/01/14 09:53:50;;;;;;;5.70;1.87;;;9.40;99.90;;;;;;5019922;28;20206;-59
2023/01/14 09:56:31;;;;;;;4.13;1.40;;;9.50;99.90;;;;;;5019663;28;20279;-59
2023/01/14 09:59:10;;;;;;;5.17;1.83;;;9.50;99.90;;;;;;5011514;28;20466;-60
2023/01/14 10:01:59;;;;;;;3.23;2.03;;;9.60;99.90;;;;;;5012864;28;20195;-60
2023/01/14 10:04:50;;;;;;;4.57;1.57;;;9.70;99.90;;;;;;5024642;28;20389;-59
2023/01/14 10:07:19;;;;;;;6.17;1.67;;;9.80;99.90;;;;;;5037492;28;20210;-59
2023/01/14 10:09:58;;;;;;;4.90;2.30;;;9.90;99.90;;;;;;5036043;28;20223;-59
2023/01/14 10:12:41;;;;;;;6.07;2.00;;;9.90;99.90;;;;;;5028008;28;20207;-59
2023/01/14 10:15:18;;;;;;;8.40;1.90;;;9.80;99.90;;;;;;5026786;28;20371;-59
2023/01/14 10:17:50;;;;;;;4.40;1.67;;;9.70;99.90;;;;;;5021594;28;20302;-69
2023/01/14 10:20:21;;;;;;;5.07;2.00;;;9.80;99.90;;;;;;5028425;28;20589;-59
2023/01/14 10:22:52;;;;;;;7.43;2.03;;;9.80;99.90;;;;;;5026583;28;20274;-59
2023/01/14 10:25:20;;;;;;;4.90;1.70;;;9.70;99.90;;;;;;5027779;28;20205;-71
2023/01/14 10:27:52;;;;;;;5.63;2.03;;;9.80;99.90;;;;;;5028049;28;20644;-67
2023/01/14 10:30:21;;;;;;;5.90;1.63;;;9.90;99.90;;;;;;5026136;28;20228;-65
2023/01/14 10:32:50;;;;;;;4.13;1.90;;;9.90;99.90;;;;;;5015671;28;20779;-65
2023/01/14 10:35:23;;;;;;;8.73;1.80;;;9.90;99.90;;;;;;5011600;28;20341;-64
2023/01/14 10:37:49;;;;;;;8.03;1.90;;;9.70;99.90;;;;;;5019165;28;20680;-64
2023/01/14 10:40:22;;;;;;;8.27;2.43;;;9.60;99.90;;;;;;5012741;28;20810;-64
2023/01/14 10:42:48;;;;;;;4.57;1.97;;;9.50;99.90;;;;;;5012767;28;20674;-64
2023/01/14 10:45:13;;;;;;;9.97;2.30;;;9.50;99.90;;;;;;5012379;28;20207;-63
2023/01/14 10:47:40;;;;;;;6.43;2.53;;;9.50;99.90;;;;;;5012010;28;20314;-64
2023/01/14 10:50:28;;;;;;;6.90;1.80;;;9.40;99.90;;;;;;5010870;28;20217;-64
2023/01/14 10:52:54;;;;;;;5.20;1.87;;;9.50;99.90;;;;;;5025451;28;20301;-65
2023/01/14 10:55:31;;;;;;;7.90;2.17;;;9.60;99.90;;;;;;5012445;28;20196;-63
2023/01/14 10:58:03;;;;;;;6.93;2.07;;;9.70;99.90;;;;;;5014703;28;20625;-63
2023/01/14 11:00:38;;;;;;;5.57;2.03;;;9.70;99.90;;;;;;5021199;28;20205;-63
2023/01/14 11:03:09;;;;;;;7.50;2.63;;;9.80;99.90;;;;;;5014463;28;20241;-64
2023/01/14 11:05:40;;;;;;;7.10;2.10;;;9.80;99.90;;;;;;5027377;28;20211;-63
2023/01/14 11:08:22;;;;;;;5.47;2.37;;;9.80;99.90;;;;;;5028570;28;20215;-62
2023/01/14 11:10:57;;;;;;;8.93;3.40;;;9.90;99.90;;;;;;5025711;28;20229;-62
2023/01/14 11:13:32;;;;;;;5.53;2.30;;;10.00;99.90;;;;;;5027386;28;20257;-62
2023/01/14 11:15:59;;;;;;;8.67;3.03;;;9.90;99.90;;;;;;5019674;28;20568;-63
2023/01/14 11:18:29;;;;;;;7.37;2.27;;;9.80;99.90;;;;;;5012463;28;20760;-64
2023/01/14 11:21:05;;;;;;;9.57;2.47;;;9.80;99.90;;;;;;5011932;28;20291;-63
2023/01/14 11:23:33;;;;;;;6.30;2.17;;;9.80;99.90;;;;;;5014381;28;20206;-63
2023/01/14 11:26:07;;;;;;;6.73;2.37;;;9.90;99.90;;;;;;5012176;28;20207;-63
2023/01/14 11:28:41;;;;;;;4.77;1.87;;;9.80;99.90;;;;;;5016717;28;20287;-63
2023/01/14 11:31:06;;;;;;;11.43;2.97;;;9.80;99.90;;;;;;5015618;28;20265;-63
2023/01/14 11:33:33;;;;;;;8.33;3.00;;;9.60;99.90;;;;;;5017045;28;20662;-62
2023/01/14 11:35:59;;;;;;;9.20;2.03;;;9.60;99.90;;;;;;5011501;28;20666;-63
2023/01/14 11:38:26;;;;;;;7.23;2.57;;;9.60;99.90;;;;;;5010072;28;20206;-64
2023/01/14 11:43:51;;;;;;;8.03;2.53;;;9.50;99.90;;;;;;5018798;28;20252;-63
2023/01/14 11:46:17;;;;;;;7.03;2.10;;;9.60;99.90;;;;;;5021304;28;20214;-64
2023/01/14 11:48:43;;;;;;;7.17;2.50;;;9.60;99.90;;;;;;5027621;28;20262;-64
2023/01/14 11:51:27;;;;;;;8.10;2.83;;;9.50;99.90;;;;;;5027226;28;20210;-63
2023/01/14 11:53:54;;;;;;;7.27;2.80;;;9.50;99.90;;;;;;5024004;28;20218;-64
2023/01/14 11:56:31;;;;;;;5.40;2.00;;;9.40;99.90;;;;;;5026254;28;20230;-65
2023/01/14 11:58:57;;;;;;;7.30;2.20;;;9.40;99.90;;;;;;5010254;28;20286;-63
2023/01/14 12:01:39;;;;;;;8.87;3.00;;;9.30;99.90;;;;;;5008617;28;20196;-63
2023/01/14 12:04:18;;;;;;;7.87;2.43;;;9.30;99.90;;;;;;5028035;28;20656;-63
2023/01/14 12:07:00;;;;;;;4.00;2.20;;;9.20;99.90;;;;;;5018164;28;20724;-63
2023/01/14 12:09:40;;;;;;;11.77;3.10;;;9.20;99.90;;;;;;5015231;28;20207;-63
2023/01/14 12:12:20;;;;;;;12.83;2.73;;;9.30;99.90;;;;;;5012037;28;20230;-64
2023/01/14 12:17:40;;;;;;;10.60;2.40;;;9.10;99.90;;;;;;5013511;28;20245;-63
2023/01/14 12:20:11;;;;;;;6.03;1.60;;;9.00;99.90;;;;;;5011750;28;20304;-63
2023/01/14 12:22:57;;;;;;;10.57;2.37;;;9.00;99.90;;;;;;5016369;28;20708;-63
2023/01/14 12:25:24;;;;;;;6.20;2.03;;;9.00;99.90;;;;;;5009467;28;20273;-62
2023/01/14 12:28:01;;;;;;;8.03;2.60;;;9.00;99.90;;;;;;5008304;28;20200;-67
2023/01/14 12:30:44;;;;;;;6.17;1.73;;;9.00;99.90;;;;;;5010967;28;21209;-63
2023/01/14 12:33:14;;;;;;;7.07;2.20;;;9.00;99.90;;;;;;5013631;28;20198;-64
2023/01/14 12:35:45;;;;;;;9.70;4.13;;;9.00;99.90;;;;;;5011756;28;20298;-63
2023/01/14 12:46:46;;;;;;;7.33;2.47;;;9.30;99.90;;;;;;5021813;28;20209;-61
2023/01/14 12:49:11;;;;;;;5.47;1.90;;;9.30;99.90;;;;;;5026547;28;20203;-60
2023/01/14 12:51:41;;;;;;;6.70;2.40;;;9.40;99.90;;;;;;5024990;28;20199;-68
2023/01/14 12:54:18;;;;;;;6.90;1.90;;;9.40;99.90;;;;;;5025032;28;20203;-69
2023/01/14 12:56:52;;;;;;;6.30;2.10;;;9.30;99.90;;;;;;5025948;28;20750;-68
2023/01/14 12:59:30;;;;;;;7.10;3.00;;;9.30;99.90;;;;;;5016412;28;20195;-68
2023/01/14 13:02:26;;;;;;;4.50;1.80;;;9.30;99.90;;;;;;5026072;28;20285;-69
2023/01/14 13:05:26;;;;;;;7.53;2.83;;;9.20;99.90;;;;;;5026772;28;20211;-67
2023/01/14 13:07:58;;;;;;;8.83;2.50;;;9.20;99.90;;;;;;5031898;28;20221;-68
2023/01/14 13:10:37;;;;;;;6.10;2.00;;;9.30;99.90;;;;;;5014781;28;20222;-68
2023/01/14 13:13:21;;;;;;;6.77;2.30;;;9.20;99.90;;;;;;5023654;28;20636;-69
2023/01/14 13:15:46;;;;;;;8.50;2.40;;;9.20;99.90;;;;;;5026448;28;20617;-68
2023/01/14 13:18:34;;;;;;;5.50;2.60;;;9.10;99.90;;;;;;5026522;28;20282;-67
2023/01/14 13:21:01;;;;;;;7.80;2.43;;;9.10;99.90;;;;;;5035351;28;20343;-68
2023/01/14 13:23:36;;;;;;;6.67;2.57;;;9.00;99.90;;;;;;5032589;28;20199;-68
2023/01/14 13:26:17;;;;;;;10.00;2.80;;;9.00;99.90;;;;;;5023958;28;20191;-68
2023/01/14 13:29:22;;;;;;;3.53;1.93;;;9.00;99.90;;;;;;5032509;28;20214;-69
2023/01/14 13:31:47;;;;;;;4.90;2.23;;;9.00;99.90;;;;;;5036133;28;20207;-68
2023/01/14 13:34:22;;;;;;;8.93;2.30;;;8.90;99.90;;;;;;5035419;28;20204;-67
2023/01/14 13:36:59;;;;;;;10.10;2.63;;;8.90;99.90;;;;;;5036286;28;20283;-67
2023/01/14 13:39:26;;;;;;;5.50;2.23;;;8.90;99.90;;;;;;5033026;28;20209;-68
2023/01/14 13:41:54;;;;;;;5.57;2.60;;;8.90;99.90;;;;;;5035185;28;20231;-68
2023/01/14 13:44:28;;;;;;;8.03;2.47;;;8.80;99.90;;;;;;5030714;28;20215;-67
2023/01/14 13:47:00;;;;;;;9.57;2.87;;;8.80;99.90;;;;;;5031700;28;20222;-68
2023/01/14 13:49:36;;;;;;;8.33;2.80;;;8.80;99.90;;;;;;5029617;28;20257;-67
2023/01/14 13:52:11;;;;;;;9.37;2.17;;;8.80;99.90;;;;;;5025978;28;20557;-67
2023/01/14 13:54:37;;;;;;;8.30;2.67;;;8.80;99.90;;;;;;5028352;28;20195;-67
2023/01/14 13:57:21;;;;;;;11.53;3.13;;;8.80;99.90;;;;;;5031907;28;20615;-68
2023/01/14 13:59:59;;;;;;;5.87;1.77;;;8.80;99.90;;;;;;5032595;28;20419;-68